Time;durP1;ratioP1;P1;durP2;ratioP2;P2;SDS_P1;SDS_P2;PMS_P1;PMS_P2;Temp;Humidity;BMP_temperature;BMP_pressure;BME280_temperature;BME280_humidity;BME280_pressure;Samples;Min_cycle;Max_cycle;Signal;HPM_P1;HPM_P2
2023/02/04 00:01:00;;;;;;;7.20;5.33;;;10.10;99.90;;;;;;5065469;28;20191;-66
2023/02/04 00:03:25;;;;;;;6.87;5.13;;;10.10;99.90;;;;;;5064724;28;20263;-66
2023/02/04 00:05:51;;;;;;;7.87;5.83;;;10.00;99.90;;;;;;5068004;28;20221;-66
2023/02/04 00:08:16;;;;;;;7.93;5.90;;;10.00;99.90;;;;;;5071132;28;20182;-66
2023/02/04 00:10:42;;;;;;;10.03;6.23;;;10.10;99.90;;;;;;5066014;28;20171;-66
2023/02/04 00:13:08;;;;;;;8.20;5.90;;;10.10;99.90;;;;;;5068396;28;20220;-66
2023/02/04 00:15:33;;;;;;;7.40;5.67;;;10.00;99.90;;;;;;5065916;28;20273;-66
2023/02/04 00:17:59;;;;;;;7.80;6.10;;;9.90;99.90;;;;;;5071251;28;20183;-66
2023/02/04 00:20:25;;;;;;;7.53;5.70;;;10.00;99.90;;;;;;5052311;28;20198;-66
2023/02/04 00:22:50;;;;;;;7.70;5.53;;;10.00;99.90;;;;;;5071078;28;20239;-66
2023/02/04 00:25:16;;;;;;;7.07;5.80;;;9.90;99.90;;;;;;5068956;28;20741;-66
2023/02/04 00:27:42;;;;;;;6.70;5.70;;;10.00;99.90;;;;;;5069721;28;20217;-65
2023/02/04 00:30:09;;;;;;;6.80;6.10;;;10.00;99.90;;;;;;5070628;28;20856;-66
2023/02/04 00:32:34;;;;;;;6.87;6.00;;;9.90;99.90;;;;;;5074255;28;20244;-66
2023/02/04 00:35:03;;;;;;;8.07;6.43;;;9.90;99.90;;;;;;5070788;28;20432;-66
2023/02/04 00:37:29;;;;;;;7.37;5.90;;;9.90;99.90;;;;;;5073297;28;21596;-66
2023/02/04 00:39:55;;;;;;;7.80;6.50;;;9.90;99.90;;;;;;5072506;28;20441;-66
2023/02/04 00:42:20;;;;;;;8.17;5.90;;;9.90;99.90;;;;;;5071797;28;20572;-66
2023/02/04 00:44:46;;;;;;;8.30;6.30;;;9.80;99.90;;;;;;5055619;28;20691;-66
2023/02/04 00:47:11;;;;;;;6.87;5.90;;;9.80;99.90;;;;;;5075051;28;20418;-66
2023/02/04 00:49:37;;;;;;;9.60;6.10;;;9.90;99.90;;;;;;5074341;28;20196;-67
2023/02/04 00:52:02;;;;;;;7.77;6.30;;;9.90;99.90;;;;;;5075125;28;20182;-66
2023/02/04 00:54:28;;;;;;;21.13;8.10;;;9.80;99.90;;;;;;5076270;28;20187;-67
2023/02/04 00:56:53;;;;;;;8.20;7.00;;;9.80;99.90;;;;;;5071092;28;20222;-66
2023/02/04 00:59:19;;;;;;;7.27;6.37;;;9.70;99.90;;;;;;5077101;28;20243;-66
2023/02/04 01:01:45;;;;;;;8.40;6.23;;;9.80;99.90;;;;;;5066289;28;20274;-66
2023/02/04 01:04:10;;;;;;;7.60;6.23;;;9.90;99.90;;;;;;5064212;28;20196;-66
2023/02/04 01:06:36;;;;;;;7.83;6.77;;;9.80;99.90;;;;;;5075037;28;20913;-66
2023/02/04 01:09:02;;;;;;;7.00;5.93;;;9.80;99.90;;;;;;5072729;28;20178;-66
2023/02/04 01:11:29;;;;;;;10.10;6.60;;;9.80;99.90;;;;;;5073059;28;20699;-66
2023/02/04 01:13:55;;;;;;;11.47;6.80;;;9.80;99.90;;;;;;5076109;28;20444;-67
2023/02/04 01:16:21;;;;;;;8.27;6.63;;;9.70;99.90;;;;;;5053816;28;20520;-66
2023/02/04 01:18:46;;;;;;;9.43;7.00;;;9.80;99.90;;;;;;5073475;28;20178;-66
2023/02/04 01:21:12;;;;;;;8.67;6.83;;;9.70;99.90;;;;;;5069544;28;20202;-66
2023/02/04 01:23:38;;;;;;;9.37;7.50;;;9.80;99.90;;;;;;5073851;28;20206;-66
2023/02/04 01:26:03;;;;;;;11.03;7.03;;;9.70;99.90;;;;;;5072330;28;20528;-66
2023/02/04 01:28:29;;;;;;;9.73;7.60;;;9.80;99.90;;;;;;5054980;28;20194;-66
2023/02/04 01:30:55;;;;;;;8.07;6.77;;;9.80;99.90;;;;;;5072357;28;20554;-66
2023/02/04 01:33:21;;;;;;;8.17;6.90;;;9.80;99.90;;;;;;5075319;28;20183;-66
2023/02/04 01:35:47;;;;;;;7.13;5.97;;;9.70;99.90;;;;;;5069766;28;20828;-66
2023/02/04 01:38:13;;;;;;;7.10;6.37;;;9.70;99.90;;;;;;5073436;28;20481;-66
2023/02/04 01:40:39;;;;;;;12.70;6.50;;;9.80;99.90;;;;;;5075368;28;20178;-66
2023/02/04 01:43:05;;;;;;;9.13;6.80;;;9.80;99.90;;;;;;5077000;28;20185;-66
2023/02/04 01:45:33;;;;;;;6.90;5.83;;;9.60;99.90;;;;;;5056543;28;20463;-66
2023/02/04 01:47:59;;;;;;;10.73;6.27;;;9.70;99.90;;;;;;5071471;28;20471;-66
2023/02/04 01:50:25;;;;;;;7.80;5.80;;;9.70;99.90;;;;;;5070382;28;20467;-66
2023/02/04 01:52:51;;;;;;;6.33;5.30;;;9.60;99.90;;;;;;5071896;28;20436;-66
2023/02/04 01:55:19;;;;;;;7.40;5.77;;;9.60;99.90;;;;;;5074707;28;20186;-66
2023/02/04 01:57:45;;;;;;;8.30;6.27;;;9.60;99.90;;;;;;5076455;28;20281;-66
2023/02/04 02:00:28;;;;;;;7.00;6.10;;;9.60;99.90;;;;;;5073667;28;20432;-66
2023/02/04 02:02:55;;;;;;;6.70;5.77;;;9.60;99.90;;;;;;5062400;28;20481;-66
2023/02/04 02:05:28;;;;;;;6.90;5.80;;;9.60;99.90;;;;;;5070138;28;21079;-66
2023/02/04 02:07:57;;;;;;;8.00;6.40;;;9.60;99.90;;;;;;5069688;28;20476;-66
2023/02/04 02:10:23;;;;;;;12.40;6.17;;;9.50;99.90;;;;;;5077006;28;20503;-66
2023/02/04 02:12:49;;;;;;;9.97;7.00;;;9.50;99.90;;;;;;5073792;28;20790;-66
2023/02/04 02:15:15;;;;;;;8.70;7.00;;;9.60;99.90;;;;;;5071829;28;20449;-66
2023/02/04 02:17:42;;;;;;;8.37;6.87;;;9.50;99.90;;;;;;5071864;28;21024;-66
2023/02/04 02:20:10;;;;;;;8.90;6.70;;;9.60;99.90;;;;;;5074342;28;20803;-66
2023/02/04 02:23:00;;;;;;;8.67;6.80;;;9.60;99.90;;;;;;5068549;28;20440;-66
2023/02/04 02:25:25;;;;;;;10.70;7.70;;;9.60;99.90;;;;;;5072457;28;20437;-65
2023/02/04 02:27:51;;;;;;;7.50;5.07;;;9.70;99.90;;;;;;5070496;28;20464;-66
2023/02/04 02:30:18;;;;;;;5.90;5.30;;;9.70;99.90;;;;;;5072865;28;20235;-66
2023/02/04 02:32:45;;;;;;;6.23;5.10;;;9.80;99.90;;;;;;5072175;28;20615;-66
2023/02/04 02:35:11;;;;;;;8.57;5.83;;;9.80;99.90;;;;;;5068968;28;20501;-66
2023/02/04 02:37:36;;;;;;;6.67;5.10;;;9.80;99.90;;;;;;5068338;28;20448;-66
2023/02/04 02:40:04;;;;;;;6.87;5.67;;;9.80;99.90;;;;;;5069479;28;20182;-66
2023/02/04 02:42:30;;;;;;;6.03;4.90;;;9.80;99.90;;;;;;5072920;28;20195;-66
2023/02/04 02:44:56;;;;;;;6.30;4.83;;;9.90;99.90;;;;;;5071271;28;20752;-66
2023/02/04 02:47:22;;;;;;;7.53;4.20;;;9.90;99.90;;;;;;5070255;28;20250;-65
2023/02/04 02:49:53;;;;;;;5.03;3.80;;;9.90;99.90;;;;;;5073367;28;20428;-66
2023/02/04 02:52:19;;;;;;;5.40;4.20;;;10.10;99.90;;;;;;5068647;28;20436;-66
2023/02/04 02:54:45;;;;;;;6.10;4.63;;;10.00;99.90;;;;;;5069830;28;20968;-66
2023/02/04 02:57:15;;;;;;;6.60;4.47;;;10.00;99.90;;;;;;5073670;28;20660;-66
2023/02/04 02:59:41;;;;;;;5.30;4.33;;;9.90;99.90;;;;;;5074228;28;20539;-65
2023/02/04 03:02:08;;;;;;;7.37;4.33;;;10.00;99.90;;;;;;5060821;28;20436;-66
2023/02/04 03:04:37;;;;;;;4.27;3.87;;;10.00;99.90;;;;;;5070563;28;20195;-65
2023/02/04 03:07:03;;;;;;;4.73;4.30;;;10.00;99.90;;;;;;5075747;28;20840;-65
2023/02/04 03:09:29;;;;;;;4.50;3.60;;;10.00;99.90;;;;;;5071492;28;20443;-65
2023/02/04 03:11:55;;;;;;;7.00;4.30;;;10.00;99.90;;;;;;5074824;28;20417;-66
2023/02/04 03:14:23;;;;;;;6.30;3.90;;;10.00;99.90;;;;;;5069950;28;20226;-65
2023/02/04 03:16:49;;;;;;;5.70;4.30;;;9.90;99.90;;;;;;5055636;28;20595;-68
2023/02/04 03:19:15;;;;;;;5.57;3.97;;;10.00;99.90;;;;;;5068823;28;20437;-65
2023/02/04 03:21:41;;;;;;;5.63;3.73;;;10.00;99.90;;;;;;5074416;28;21076;-65
2023/02/04 03:24:07;;;;;;;10.60;3.87;;;10.00;99.90;;;;;;5073457;28;20282;-66
2023/02/04 03:26:33;;;;;;;6.60;3.57;;;10.10;99.90;;;;;;5069619;28;21016;-65
2023/02/04 03:28:58;;;;;;;7.87;4.17;;;10.10;99.90;;;;;;5070913;28;20201;-65
2023/02/04 03:31:24;;;;;;;5.30;3.20;;;10.00;99.90;;;;;;5066250;28;20183;-66
2023/02/04 03:33:50;;;;;;;7.30;3.90;;;10.00;99.90;;;;;;5073150;28;20187;-65
2023/02/04 03:36:16;;;;;;;7.73;3.90;;;10.00;99.90;;;;;;5069183;28;20684;-65
2023/02/04 03:38:41;;;;;;;5.30;3.57;;;10.10;99.90;;;;;;5066545;28;20444;-65
2023/02/04 03:41:07;;;;;;;6.70;3.37;;;10.10;99.90;;;;;;5066255;28;20286;-65
2023/02/04 03:43:32;;;;;;;7.23;3.43;;;10.10;99.90;;;;;;5068413;28;20194;-65
2023/02/04 03:45:58;;;;;;;9.87;4.10;;;10.20;99.90;;;;;;5069541;28;20206;-65
2023/02/04 03:48:23;;;;;;;6.03;3.50;;;10.10;99.90;;;;;;5069362;28;20235;-65
2023/02/04 03:50:49;;;;;;;6.40;3.70;;;10.10;99.90;;;;;;5071650;28;20187;-65
2023/02/04 03:53:15;;;;;;;4.90;3.53;;;10.10;99.90;;;;;;5071961;28;20190;-65
2023/02/04 03:55:40;;;;;;;6.87;4.40;;;10.20;99.90;;;;;;5074183;28;20190;-65
2023/02/04 03:58:06;;;;;;;7.43;3.40;;;10.20;99.90;;;;;;5069404;28;20240;-66
2023/02/04 04:00:32;;;;;;;9.93;3.77;;;10.20;99.90;;;;;;5050308;28;20677;-64
2023/02/04 04:02:58;;;;;;;6.87;3.60;;;10.20;99.90;;;;;;5063017;28;20220;-66
2023/02/04 04:05:25;;;;;;;7.70;3.87;;;10.20;99.90;;;;;;5069111;28;20453;-66
2023/02/04 04:07:50;;;;;;;10.20;3.90;;;10.20;99.90;;;;;;5071613;28;20858;-66
2023/02/04 04:10:16;;;;;;;9.83;3.70;;;10.10;99.90;;;;;;5051428;28;20425;-65
2023/02/04 04:12:42;;;;;;;7.17;3.30;;;10.10;99.90;;;;;;5071426;28;20191;-66
2023/02/04 04:15:08;;;;;;;8.17;3.17;;;10.10;99.90;;;;;;5070442;28;20182;-66
2023/02/04 04:17:33;;;;;;;6.17;3.97;;;10.10;99.90;;;;;;5072603;28;20218;-66
2023/02/04 04:19:59;;;;;;;14.63;3.50;;;10.10;99.90;;;;;;5071532;28;20536;-66
2023/02/04 04:22:24;;;;;;;6.93;3.77;;;10.10;99.90;;;;;;5075626;28;20261;-66
2023/02/04 04:24:50;;;;;;;9.10;4.23;;;10.00;99.90;;;;;;5058090;28;20181;-65
2023/02/04 04:27:16;;;;;;;9.03;3.93;;;10.00;99.90;;;;;;5074211;28;20705;-65
2023/02/04 04:29:42;;;;;;;6.37;3.60;;;10.00;99.90;;;;;;5076597;28;20420;-66
2023/02/04 04:32:08;;;;;;;10.67;3.20;;;10.00;99.90;;;;;;5076485;28;20257;-66
2023/02/04 04:34:34;;;;;;;8.80;3.60;;;10.00;99.90;;;;;;5077324;28;20190;-66
2023/02/04 04:37:00;;;;;;;6.30;3.10;;;9.90;99.90;;;;;;5057456;28;20990;-66
2023/02/04 04:39:25;;;;;;;6.93;4.33;;;9.80;99.90;;;;;;5076886;28;20515;-66
2023/02/04 04:41:51;;;;;;;11.80;3.53;;;9.80;99.90;;;;;;5073550;28;20194;-66
2023/02/04 04:44:16;;;;;;;9.30;3.83;;;9.80;99.90;;;;;;5076472;28;20639;-66
2023/02/04 04:46:42;;;;;;;8.17;3.67;;;9.80;99.90;;;;;;5073340;28;20590;-67
2023/02/04 04:49:07;;;;;;;10.40;4.20;;;9.80;99.90;;;;;;5067503;28;20183;-66
2023/02/04 04:51:33;;;;;;;7.47;3.40;;;9.90;99.90;;;;;;5070058;28;20191;-66
2023/02/04 04:53:58;;;;;;;7.63;3.50;;;9.90;99.90;;;;;;5068479;28;20247;-66
2023/02/04 04:56:25;;;;;;;7.60;3.47;;;9.90;99.90;;;;;;5069812;28;20203;-67
2023/02/04 04:58:50;;;;;;;8.90;3.93;;;9.80;99.90;;;;;;5072418;28;20187;-67
2023/02/04 05:01:16;;;;;;;9.00;3.47;;;9.80;99.90;;;;;;5064476;28;20433;-67
2023/02/04 05:03:41;;;;;;;11.33;3.53;;;9.80;99.90;;;;;;5049715;28;20183;-67
2023/02/04 05:06:08;;;;;;;7.70;3.40;;;9.80;99.90;;;;;;5069733;28;20245;-66
2023/02/04 05:08:34;;;;;;;11.27;3.20;;;9.90;99.90;;;;;;5070644;28;20198;-66
2023/02/04 05:11:01;;;;;;;6.80;3.40;;;9.70;99.90;;;;;;5070475;28;20817;-67
2023/02/04 05:13:26;;;;;;;8.10;3.60;;;9.80;99.90;;;;;;5075631;28;20444;-67
2023/02/04 05:15:52;;;;;;;7.13;2.70;;;9.70;99.90;;;;;;5071880;28;20448;-67
2023/02/04 05:18:17;;;;;;;7.67;3.60;;;9.60;99.90;;;;;;5074912;28;20183;-67
2023/02/04 05:20:43;;;;;;;9.10;3.80;;;9.60;99.90;;;;;;5069747;28;20190;-66
2023/02/04 05:23:08;;;;;;;9.47;4.10;;;9.60;99.90;;;;;;5073209;28;20179;-66
2023/02/04 05:25:34;;;;;;;10.33;4.03;;;9.70;99.90;;;;;;5076639;28;20174;-67
2023/02/04 05:27:59;;;;;;;9.03;4.53;;;9.60;99.90;;;;;;5071864;28;20563;-67
2023/02/04 05:30:25;;;;;;;6.83;3.30;;;9.50;99.90;;;;;;5071479;28;20561;-66
2023/02/04 05:32:50;;;;;;;7.40;3.53;;;9.50;99.90;;;;;;5072041;28;20668;-66
2023/02/04 05:35:16;;;;;;;7.70;3.67;;;9.60;99.90;;;;;;5073701;28;20190;-66
2023/02/04 05:37:42;;;;;;;10.37;4.03;;;9.50;99.90;;;;;;5077481;28;21380;-67
2023/02/04 05:40:08;;;;;;;6.20;3.30;;;9.50;99.90;;;;;;5073251;28;20307;-67
2023/02/04 05:42:33;;;;;;;7.40;3.70;;;9.60;99.90;;;;;;5069468;28;20548;-67
2023/02/04 05:44:59;;;;;;;7.93;4.00;;;9.60;99.90;;;;;;5076666;28;20447;-67
2023/02/04 05:47:24;;;;;;;5.47;3.27;;;9.70;99.90;;;;;;5068719;28;20198;-67
2023/02/04 05:49:50;;;;;;;7.80;3.50;;;9.70;99.90;;;;;;5072267;28;20278;-67
2023/02/04 05:52:16;;;;;;;15.77;3.50;;;9.70;99.90;;;;;;5071444;28;20206;-67
2023/02/04 05:54:41;;;;;;;7.47;3.43;;;9.70;99.90;;;;;;5055126;28;20302;-66
2023/02/04 05:57:07;;;;;;;4.57;2.80;;;9.70;99.90;;;;;;5075776;28;20214;-67
2023/02/04 05:59:32;;;;;;;5.20;2.90;;;9.70;99.90;;;;;;5071139;28;20190;-67
2023/02/04 06:01:58;;;;;;;8.33;3.53;;;9.70;99.90;;;;;;5061100;28;20217;-66
2023/02/04 06:04:24;;;;;;;9.00;3.83;;;9.70;99.90;;;;;;5071722;28;20636;-66
2023/02/04 06:06:49;;;;;;;6.40;3.70;;;9.70;99.90;;;;;;5074708;28;20635;-66
2023/02/04 06:09:15;;;;;;;7.90;3.27;;;9.70;99.90;;;;;;5071609;28;20183;-66
2023/02/04 06:11:40;;;;;;;6.67;3.43;;;9.70;99.90;;;;;;5074630;28;20213;-67
2023/02/04 06:14:06;;;;;;;3.50;2.77;;;9.80;99.90;;;;;;5074782;28;20738;-67
2023/02/04 06:16:32;;;;;;;7.97;3.40;;;9.80;99.90;;;;;;5071821;28;20627;-67
2023/02/04 06:18:58;;;;;;;8.47;3.13;;;9.80;99.90;;;;;;5073492;28;20440;-66
2023/02/04 06:21:23;;;;;;;6.00;3.10;;;9.80;99.90;;;;;;5071404;28;20274;-66
2023/02/04 06:23:49;;;;;;;6.27;2.90;;;9.80;99.90;;;;;;5072616;28;20190;-66
2023/02/04 06:26:14;;;;;;;6.70;3.77;;;9.80;99.90;;;;;;5054989;28;20766;-66
2023/02/04 06:28:40;;;;;;;5.83;3.17;;;9.80;99.90;;;;;;5051939;28;20213;-68
2023/02/04 06:31:07;;;;;;;5.03;2.53;;;9.90;99.90;;;;;;5071919;28;20248;-65
2023/02/04 06:33:34;;;;;;;12.27;3.50;;;9.90;99.90;;;;;;5071155;28;20229;-65
2023/02/04 06:35:59;;;;;;;6.77;3.40;;;9.90;99.90;;;;;;5064576;28;20483;-65
2023/02/04 06:38:25;;;;;;;7.90;3.77;;;9.90;99.90;;;;;;5077632;28;20444;-65
2023/02/04 06:40:52;;;;;;;7.63;2.83;;;9.90;99.90;;;;;;5055710;28;20660;-65
2023/02/04 06:43:18;;;;;;;6.10;2.80;;;9.90;99.90;;;;;;5075239;28;20209;-68
2023/02/04 06:45:44;;;;;;;14.20;3.43;;;9.90;99.90;;;;;;5072834;28;20963;-68
2023/02/04 06:48:10;;;;;;;3.03;2.50;;;9.90;99.90;;;;;;5069799;28;20511;-67
2023/02/04 06:50:35;;;;;;;7.27;2.90;;;9.90;99.90;;;;;;5066552;28;20213;-67
2023/02/04 06:53:01;;;;;;;10.17;2.67;;;9.90;99.90;;;;;;5070318;28;20701;-66
2023/02/04 06:55:26;;;;;;;7.43;2.80;;;9.90;99.90;;;;;;5069797;28;20186;-67
2023/02/04 06:57:52;;;;;;;8.53;3.43;;;9.90;99.90;;;;;;5068706;28;20224;-66
2023/02/04 07:00:18;;;;;;;8.20;2.50;;;9.90;99.90;;;;;;5069933;28;20251;-67
2023/02/04 07:02:44;;;;;;;10.90;2.83;;;9.90;99.90;;;;;;5056249;28;20560;-66
2023/02/04 07:05:10;;;;;;;6.30;2.60;;;9.90;99.90;;;;;;5070575;28;20435;-67
2023/02/04 07:07:36;;;;;;;3.70;2.50;;;10.00;99.90;;;;;;5066911;28;20565;-67
2023/02/04 07:10:02;;;;;;;10.13;2.80;;;10.00;99.90;;;;;;5072377;28;20186;-67
2023/02/04 07:12:28;;;;;;;5.20;2.80;;;9.90;99.90;;;;;;5074877;28;20287;-67
2023/02/04 07:14:53;;;;;;;5.80;2.97;;;9.90;99.90;;;;;;5068706;28;20546;-67
2023/02/04 07:17:19;;;;;;;7.93;3.40;;;9.90;99.90;;;;;;5073869;28;20209;-68
2023/02/04 07:19:44;;;;;;;3.67;2.83;;;9.90;99.90;;;;;;5070318;28;20778;-68
2023/02/04 07:22:10;;;;;;;7.63;3.07;;;9.90;99.90;;;;;;5072841;28;20201;-68
2023/02/04 07:24:35;;;;;;;5.27;2.80;;;9.90;99.90;;;;;;5070019;28;20799;-68
2023/02/04 07:27:01;;;;;;;5.17;3.03;;;9.90;99.90;;;;;;5074398;28;20229;-68
2023/02/04 07:29:27;;;;;;;6.80;3.27;;;9.90;99.90;;;;;;5073235;28;20187;-67
2023/02/04 07:31:53;;;;;;;6.87;3.30;;;9.90;99.90;;;;;;5071611;28;20175;-68
2023/02/04 07:34:19;;;;;;;6.83;3.20;;;9.90;99.90;;;;;;5069323;28;20227;-67
2023/02/04 07:36:44;;;;;;;6.07;2.90;;;10.00;99.90;;;;;;5068935;28;20461;-66
2023/02/04 07:39:10;;;;;;;7.27;3.20;;;10.00;99.90;;;;;;5070879;28;21129;-67
2023/02/04 07:41:36;;;;;;;5.57;2.73;;;9.90;99.90;;;;;;5058041;28;20186;-66
2023/02/04 07:44:02;;;;;;;14.10;4.87;;;10.00;99.90;;;;;;5068086;28;20191;-66
2023/02/04 07:46:27;;;;;;;4.87;3.00;;;10.00;99.90;;;;;;5070916;28;20468;-66
2023/02/04 07:48:53;;;;;;;6.70;3.43;;;10.00;99.90;;;;;;5052949;28;20581;-66
2023/02/04 07:51:19;;;;;;;7.30;3.10;;;10.00;99.90;;;;;;5069575;28;20201;-66
2023/02/04 07:53:44;;;;;;;7.83;3.00;;;10.00;99.90;;;;;;5072321;28;20662;-66
2023/02/04 07:56:10;;;;;;;6.53;3.33;;;10.00;99.90;;;;;;5073159;28;20297;-66
2023/02/04 07:58:35;;;;;;;8.23;3.47;;;10.00;99.90;;;;;;5074377;28;20178;-66
2023/02/04 08:01:01;;;;;;;6.20;3.23;;;10.10;99.90;;;;;;5067176;28;20190;-67
2023/02/04 08:03:27;;;;;;;11.60;3.73;;;10.20;99.90;;;;;;5050932;28;20187;-66
2023/02/04 08:05:53;;;;;;;7.37;3.00;;;10.20;99.90;;;;;;5073585;28;20218;-66
2023/02/04 08:08:19;;;;;;;9.60;3.60;;;10.20;99.90;;;;;;5078400;28;20206;-66
2023/02/04 08:10:44;;;;;;;7.90;3.33;;;10.20;99.90;;;;;;5075296;28;20178;-65
2023/02/04 08:13:10;;;;;;;5.03;3.10;;;10.30;99.90;;;;;;5077115;28;21157;-65
2023/02/04 08:15:36;;;;;;;9.07;3.23;;;10.30;99.90;;;;;;5073449;28;20273;-66
2023/02/04 08:18:02;;;;;;;7.83;3.43;;;10.40;99.90;;;;;;5074467;28;20523;-66
2023/02/04 08:20:27;;;;;;;5.50;3.30;;;10.40;99.90;;;;;;5076046;28;20186;-66
2023/02/04 08:22:53;;;;;;;6.27;3.97;;;10.40;99.90;;;;;;5055153;28;20243;-66
2023/02/04 08:25:18;;;;;;;9.50;3.27;;;10.40;99.90;;;;;;5078197;28;20312;-66
2023/02/04 08:27:44;;;;;;;5.07;3.40;;;10.40;99.90;;;;;;5078630;28;20206;-66
2023/02/04 08:30:10;;;;;;;9.57;3.60;;;10.50;99.90;;;;;;5079744;28;21985;-66
2023/02/04 08:32:36;;;;;;;8.67;3.20;;;10.50;99.90;;;;;;5078775;28;20193;-67
2023/02/04 08:35:01;;;;;;;6.30;3.73;;;10.60;99.90;;;;;;5072594;28;20444;-67
2023/02/04 08:37:27;;;;;;;9.30;3.50;;;10.60;99.90;;;;;;5075294;28;20249;-67
2023/02/04 08:39:53;;;;;;;6.30;3.10;;;10.60;99.90;;;;;;5057325;28;20754;-67
2023/02/04 08:42:18;;;;;;;5.87;3.20;;;10.60;99.90;;;;;;5074740;28;20214;-66
2023/02/04 08:44:44;;;;;;;5.97;2.70;;;10.70;99.90;;;;;;5075489;28;20186;-66
2023/02/04 08:47:10;;;;;;;4.73;2.97;;;10.70;99.90;;;;;;5070963;28;20221;-67
2023/02/04 08:49:36;;;;;;;6.43;3.80;;;10.70;99.90;;;;;;5070037;28;20705;-66
2023/02/04 08:52:03;;;;;;;7.00;3.27;;;10.70;99.90;;;;;;5078331;28;20179;-67
2023/02/04 08:54:28;;;;;;;10.03;3.90;;;10.70;99.90;;;;;;5074879;28;20243;-67
2023/02/04 08:56:54;;;;;;;8.13;3.40;;;10.80;99.90;;;;;;5071624;28;21871;-67
2023/02/04 08:59:22;;;;;;;8.67;3.50;;;10.80;99.90;;;;;;5075172;28;20187;-67
2023/02/04 09:01:51;;;;;;;4.63;3.33;;;10.80;99.90;;;;;;5061395;28;20198;-67
2023/02/04 09:04:17;;;;;;;8.13;4.37;;;10.80;99.90;;;;;;5070601;28;20582;-66
2023/02/04 09:06:43;;;;;;;7.13;3.47;;;10.80;99.90;;;;;;5072303;28;20477;-67
2023/02/04 09:09:08;;;;;;;8.50;3.80;;;10.80;99.90;;;;;;5072305;28;20945;-67
2023/02/04 09:11:34;;;;;;;7.07;3.63;;;10.90;99.90;;;;;;5071642;28;20274;-67
2023/02/04 09:13:59;;;;;;;9.30;4.13;;;11.00;99.90;;;;;;5073015;28;20605;-67
2023/02/04 09:16:25;;;;;;;7.47;4.00;;;11.10;99.90;;;;;;5070935;28;20218;-67
2023/02/04 09:18:50;;;;;;;12.87;4.30;;;11.10;99.90;;;;;;5055164;28;20568;-66
2023/02/04 09:21:16;;;;;;;9.07;3.97;;;11.10;99.90;;;;;;5073871;28;20640;-66
2023/02/04 09:23:41;;;;;;;9.67;4.30;;;11.20;99.90;;;;;;5077886;28;20186;-66
2023/02/04 09:26:07;;;;;;;10.83;4.43;;;11.20;99.90;;;;;;5076514;28;20215;-67
2023/02/04 09:28:33;;;;;;;11.30;5.07;;;11.30;99.90;;;;;;5075304;28;20186;-66
2023/02/04 09:30:59;;;;;;;11.03;3.70;;;11.40;99.90;;;;;;5075721;28;20213;-66
2023/02/04 09:33:24;;;;;;;12.57;4.20;;;11.40;99.90;;;;;;5059980;28;20186;-66
2023/02/04 09:35:50;;;;;;;12.50;4.70;;;11.50;99.90;;;;;;5072915;28;20827;-67
2023/02/04 09:38:16;;;;;;;9.10;4.00;;;11.50;99.90;;;;;;5075740;28;20213;-67
2023/02/04 09:40:46;;;;;;;11.60;4.23;;;11.50;99.90;;;;;;5078032;28;20664;-66
2023/02/04 09:43:24;;;;;;;9.73;4.53;;;11.60;99.90;;;;;;5079041;28;20186;-66
2023/02/04 09:45:51;;;;;;;7.90;3.80;;;11.60;99.90;;;;;;5069670;28;20952;-66
2023/02/04 09:48:17;;;;;;;15.00;4.90;;;11.60;99.90;;;;;;5069637;28;20479;-67
2023/02/04 09:50:44;;;;;;;19.63;5.10;;;11.60;99.90;;;;;;5071079;28;20440;-67
2023/02/04 09:53:14;;;;;;;15.77;4.37;;;11.60;99.90;;;;;;5071115;28;20202;-66
2023/02/04 09:55:41;;;;;;;12.37;3.93;;;11.60;99.90;;;;;;5052851;28;20447;-67
2023/02/04 09:58:30;;;;;;;14.50;4.50;;;11.60;99.90;;;;;;5075646;28;20435;-66
2023/02/04 10:01:00;;;;;;;9.37;3.90;;;11.70;99.90;;;;;;5067704;28;20436;-67
2023/02/04 10:03:26;;;;;;;15.90;4.60;;;11.70;99.90;;;;;;5066877;28;20871;-67
2023/02/04 10:05:52;;;;;;;7.67;4.30;;;11.70;99.90;;;;;;5070598;28;20469;-67
2023/02/04 10:08:20;;;;;;;17.43;4.43;;;11.70;99.90;;;;;;5071195;28;20206;-66
2023/02/04 10:10:47;;;;;;;10.03;4.27;;;11.70;99.90;;;;;;5073956;28;20175;-67
2023/02/04 10:13:23;;;;;;;13.33;5.33;;;11.80;99.90;;;;;;5073068;28;20934;-67
2023/02/04 10:15:49;;;;;;;13.53;4.27;;;11.80;99.90;;;;;;5074103;28;20451;-66
2023/02/04 10:18:31;;;;;;;13.50;4.80;;;11.70;99.90;;;;;;5072969;28;20794;-66
2023/02/04 10:21:07;;;;;;;9.93;4.63;;;11.70;99.90;;;;;;5055588;28;20470;-66
2023/02/04 10:23:33;;;;;;;15.03;4.10;;;11.70;99.90;;;;;;5059194;28;20470;-66
2023/02/04 10:25:59;;;;;;;12.70;4.47;;;11.70;99.90;;;;;;5075721;28;20505;-66
2023/02/04 10:28:35;;;;;;;8.60;4.10;;;11.70;99.90;;;;;;5075185;28;20706;-66
2023/02/04 10:31:01;;;;;;;9.70;4.40;;;11.70;99.90;;;;;;5071375;28;20182;-66
2023/02/04 10:33:27;;;;;;;12.30;5.10;;;11.70;99.90;;;;;;5075431;28;20462;-65
2023/02/04 10:35:55;;;;;;;12.83;4.20;;;11.80;99.90;;;;;;5071982;28;20202;-66
2023/02/04 10:38:21;;;;;;;18.43;4.80;;;11.80;99.90;;;;;;5074925;28;20570;-66
2023/02/04 10:40:48;;;;;;;13.00;4.43;;;11.80;99.90;;;;;;5072266;28;20434;-66
2023/02/04 10:43:20;;;;;;;12.53;4.40;;;11.90;99.90;;;;;;5072787;28;20456;-66
2023/02/04 10:45:54;;;;;;;16.37;4.93;;;11.90;99.90;;;;;;5071976;28;20475;-67
2023/02/04 10:48:20;;;;;;;17.53;4.60;;;12.00;99.90;;;;;;5073043;28;20483;-67
2023/02/04 10:50:47;;;;;;;11.47;4.97;;;12.00;99.90;;;;;;5072629;28;20442;-67
2023/02/04 10:56:05;;;;;;;13.90;4.00;;;12.00;99.90;;;;;;5072377;28;20486;-67
2023/02/04 10:58:31;;;;;;;12.10;4.87;;;12.10;99.90;;;;;;5071829;28;21047;-67
2023/02/04 11:00:57;;;;;;;14.90;4.27;;;12.20;99.90;;;;;;5068121;28;20521;-67
2023/02/04 11:03:25;;;;;;;15.10;6.40;;;12.30;99.90;;;;;;5065543;28;20433;-67
2023/02/04 11:05:54;;;;;;;17.43;5.00;;;12.30;99.90;;;;;;5073130;28;20219;-67
2023/02/04 11:08:25;;;;;;;19.40;6.33;;;12.20;99.90;;;;;;5073647;28;20511;-67
2023/02/04 11:11:05;;;;;;;8.70;4.30;;;12.20;99.90;;;;;;5071406;28;20618;-67
2023/02/04 11:13:42;;;;;;;20.50;5.00;;;12.20;99.90;;;;;;5073039;28;20425;-65
2023/02/04 11:16:44;;;;;;;17.00;5.50;;;12.20;99.90;;;;;;5072168;28;20464;-66
2023/02/04 11:19:12;;;;;;;14.63;5.50;;;12.10;99.90;;;;;;5068953;28;21260;-66
2023/02/04 11:21:37;;;;;;;11.17;5.03;;;12.00;99.90;;;;;;5071604;28;20433;-66
2023/02/04 11:24:23;;;;;;;11.97;5.00;;;11.90;99.90;;;;;;5076240;28;20420;-66
2023/02/04 11:27:04;;;;;;;19.70;4.97;;;11.90;99.90;;;;;;5072746;28;20219;-66
2023/02/04 11:29:37;;;;;;;16.37;6.73;;;12.00;99.90;;;;;;5072806;28;20777;-66
2023/02/04 11:32:22;;;;;;;18.03;5.47;;;12.00;99.90;;;;;;5073221;28;20815;-66
2023/02/04 11:34:52;;;;;;;15.30;6.37;;;12.10;99.90;;;;;;5070187;28;20440;-66
2023/02/04 11:37:33;;;;;;;18.97;4.60;;;12.10;99.90;;;;;;5072257;28;20454;-65
2023/02/04 11:40:00;;;;;;;14.57;5.40;;;12.10;99.90;;;;;;5070549;28;20453;-66
2023/02/04 11:42:32;;;;;;;16.63;4.90;;;12.10;99.90;;;;;;5052419;28;20485;-66
2023/02/04 11:45:07;;;;;;;14.50;5.57;;;12.00;99.90;;;;;;5073599;28;20432;-66
2023/02/04 11:47:35;;;;;;;13.40;4.73;;;12.00;99.90;;;;;;5065497;28;20483;-66
2023/02/04 11:50:09;;;;;;;20.20;5.13;;;12.00;99.90;;;;;;5070088;28;20443;-66
2023/02/04 11:52:35;;;;;;;16.00;5.17;;;12.00;99.90;;;;;;5070586;28;20448;-67
2023/02/04 11:55:00;;;;;;;14.13;4.30;;;12.10;99.90;;;;;;5069307;28;20428;-66
2023/02/04 11:57:26;;;;;;;19.30;4.83;;;12.10;99.90;;;;;;5074985;28;20210;-66
2023/02/04 11:59:53;;;;;;;15.87;5.57;;;12.30;99.90;;;;;;5070947;28;20193;-66
2023/02/04 12:02:25;;;;;;;9.00;4.70;;;12.40;99.90;;;;;;5057631;28;20949;-66
2023/02/04 12:05:12;;;;;;;13.73;5.13;;;12.50;99.90;;;;;;5069620;28;20871;-66
2023/02/04 12:07:38;;;;;;;17.13;4.90;;;12.60;99.90;;;;;;5068388;28;20472;-66
2023/02/04 12:10:33;;;;;;;10.80;4.13;;;12.70;99.90;;;;;;5074086;28;20435;-66
2023/02/04 12:12:59;;;;;;;10.20;4.13;;;12.80;99.90;;;;;;5041944;28;20441;-66
2023/02/04 12:15:34;;;;;;;11.70;4.07;;;12.90;99.90;;;;;;5072487;28;20429;-66
2023/02/04 12:18:08;;;;;;;14.60;3.63;;;12.80;99.90;;;;;;5070217;28;20216;-66
2023/02/04 12:20:35;;;;;;;12.10;5.10;;;12.90;99.90;;;;;;5070972;28;20797;-66
2023/02/04 12:23:01;;;;;;;14.03;4.53;;;12.90;99.90;;;;;;5073027;28;20434;-66
2023/02/04 12:25:27;;;;;;;18.10;4.07;;;12.80;99.90;;;;;;5070125;28;20432;-66
2023/02/04 12:27:54;;;;;;;11.80;4.17;;;12.80;99.90;;;;;;5068902;28;20207;-66
2023/02/04 12:30:21;;;;;;;9.87;4.53;;;12.80;99.90;;;;;;5073732;28;20265;-67
2023/02/04 12:32:47;;;;;;;9.33;3.90;;;12.90;99.90;;;;;;5072222;28;20429;-67
2023/02/04 12:35:13;;;;;;;8.73;3.37;;;13.30;99.90;;;;;;5068118;28;20439;-67
2023/02/04 12:37:38;;;;;;;15.70;4.00;;;13.70;99.90;;;;;;5067717;28;20202;-67
2023/02/04 12:40:04;;;;;;;15.67;4.37;;;14.00;99.90;;;;;;5055474;28;20493;-67
2023/02/04 12:42:30;;;;;;;8.83;3.17;;;14.40;99.90;;;;;;5078891;28;20229;-67
2023/02/04 12:44:55;;;;;;;12.17;3.50;;;14.50;99.90;;;;;;5076480;28;20513;-67
2023/02/04 12:47:21;;;;;;;9.27;3.40;;;14.60;99.90;;;;;;5071176;28;20221;-67
2023/02/04 12:49:47;;;;;;;14.60;5.17;;;14.70;99.90;;;;;;5076816;28;20186;-67